sensor_id;sensor_type;location;lat;lon;timestamp;temperature;humidity
4826;DHT22;2427;50.934;6.776;2023-08-24T00:00:30;18.90;99.90
4826;DHT22;2427;50.934;6.776;2023-08-24T00:02:57;18.80;99.90
4826;DHT22;2427;50.934;6.776;2023-08-24T00:05:23;18.80;99.90
4826;DHT22;2427;50.934;6.776;2023-08-24T00:07:49;18.80;99.90
4826;DHT22;2427;50.934;6.776;2023-08-24T00:10:14;18.70;99.90
4826;DHT22;2427;50.934;6.776;2023-08-24T00:12:41;18.70;99.90
4826;DHT22;2427;50.934;6.776;2023-08-24T00:15:08;18.70;99.90
4826;DHT22;2427;50.934;6.776;2023-08-24T00:17:34;18.70;99.90
4826;DHT22;2427;50.934;6.776;2023-08-24T00:20:00;18.70;1.00
4826;DHT22;2427;50.934;6.776;2023-08-24T00:22:29;18.70;1.00
4826;DHT22;2427;50.934;6.776;2023-08-24T00:24:55;18.60;1.00
4826;DHT22;2427;50.934;6.776;2023-08-24T00:27:21;18.60;1.00
4826;DHT22;2427;50.934;6.776;2023-08-24T00:29:46;18.60;1.00
4826;DHT22;2427;50.934;6.776;2023-08-24T00:32:12;18.60;1.00
4826;DHT22;2427;50.934;6.776;2023-08-24T00:34:37;18.50;1.00
4826;DHT22;2427;50.934;6.776;2023-08-24T00:37:03;18.50;1.00
4826;DHT22;2427;50.934;6.776;2023-08-24T00:39:28;18.50;1.00
4826;DHT22;2427;50.934;6.776;2023-08-24T00:41:54;18.40;1.00
4826;DHT22;2427;50.934;6.776;2023-08-24T00:44:20;18.40;99.90
4826;DHT22;2427;50.934;6.776;2023-08-24T00:46:46;18.40;99.90
4826;DHT22;2427;50.934;6.776;2023-08-24T00:49:12;18.40;99.90
4826;DHT22;2427;50.934;6.776;2023-08-24T00:51:38;18.40;99.90
4826;DHT22;2427;50.934;6.776;2023-08-24T00:54:04;18.40;99.90
4826;DHT22;2427;50.934;6.776;2023-08-24T00:56:30;18.40;99.90
4826;DHT22;2427;50.934;6.776;2023-08-24T00:58:56;18.50;99.90
4826;DHT22;2427;50.934;6.776;2023-08-24T01:15:09;18.50;1.00
4826;DHT22;2427;50.934;6.776;2023-08-24T01:17:39;18.50;1.00
4826;DHT22;2427;50.934;6.776;2023-08-24T01:20:07;18.40;1.00
4826;DHT22;2427;50.934;6.776;2023-08-24T01:25:17;18.30;1.00
4826;DHT22;2427;50.934;6.776;2023-08-24T01:27:48;18.30;1.00
4826;DHT22;2427;50.934;6.776;2023-08-24T01:30:14;18.30;1.00
4826;DHT22;2427;50.934;6.776;2023-08-24T01:32:41;18.30;1.00
4826;DHT22;2427;50.934;6.776;2023-08-24T01:35:08;18.30;1.00
4826;DHT22;2427;50.934;6.776;2023-08-24T01:37:35;18.30;1.00
4826;DHT22;2427;50.934;6.776;2023-08-24T01:40:15;18.30;1.00
4826;DHT22;2427;50.934;6.776;2023-08-24T01:42:57;18.30;1.00
4826;DHT22;2427;50.934;6.776;2023-08-24T01:45:28;18.20;1.00
4826;DHT22;2427;50.934;6.776;2023-08-24T01:47:55;18.20;1.00
4826;DHT22;2427;50.934;6.776;2023-08-24T01:50:21;18.10;1.00
4826;DHT22;2427;50.934;6.776;2023-08-24T01:52:48;18.00;1.00
4826;DHT22;2427;50.934;6.776;2023-08-24T01:55:14;18.00;1.00
4826;DHT22;2427;50.934;6.776;2023-08-24T01:57:40;18.00;1.00
4826;DHT22;2427;50.934;6.776;2023-08-24T02:00:07;17.90;1.00
4826;DHT22;2427;50.934;6.776;2023-08-24T02:02:34;17.90;1.00
4826;DHT22;2427;50.934;6.776;2023-08-24T02:05:00;17.90;1.00
4826;DHT22;2427;50.934;6.776;2023-08-24T02:07:26;17.90;1.00
4826;DHT22;2427;50.934;6.776;2023-08-24T02:09:51;17.90;1.00
4826;DHT22;2427;50.934;6.776;2023-08-24T02:12:17;17.90;1.00
4826;DHT22;2427;50.934;6.776;2023-08-24T02:14:42;17.90;1.00
4826;DHT22;2427;50.934;6.776;2023-08-24T02:17:08;17.90;1.00
4826;DHT22;2427;50.934;6.776;2023-08-24T02:19:34;17.80;18.90
4826;DHT22;2427;50.934;6.776;2023-08-24T02:21:59;17.80;66.20
4826;DHT22;2427;50.934;6.776;2023-08-24T02:24:25;17.70;99.90
4826;DHT22;2427;50.934;6.776;2023-08-24T02:26:51;17.80;99.90
4826;DHT22;2427;50.934;6.776;2023-08-24T02:29:16;17.90;99.90
4826;DHT22;2427;50.934;6.776;2023-08-24T02:34:45;18.00;99.90
4826;DHT22;2427;50.934;6.776;2023-08-24T02:37:11;17.90;99.90
4826;DHT22;2427;50.934;6.776;2023-08-24T02:39:37;18.00;99.90
4826;DHT22;2427;50.934;6.776;2023-08-24T02:42:02;18.00;99.90
4826;DHT22;2427;50.934;6.776;2023-08-24T02:44:28;18.10;99.90
4826;DHT22;2427;50.934;6.776;2023-08-24T02:47:09;18.10;87.50
4826;DHT22;2427;50.934;6.776;2023-08-24T02:49:35;18.20;91.50
4826;DHT22;2427;50.934;6.776;2023-08-24T02:52:02;18.20;79.50
4826;DHT22;2427;50.934;6.776;2023-08-24T02:54:28;18.20;54.10
4826;DHT22;2427;50.934;6.776;2023-08-24T02:57:02;18.30;99.90
4826;DHT22;2427;50.934;6.776;2023-08-24T02:59:28;18.30;99.90
4826;DHT22;2427;50.934;6.776;2023-08-24T03:01:53;18.30;99.90
4826;DHT22;2427;50.934;6.776;2023-08-24T03:04:19;18.40;99.90
4826;DHT22;2427;50.934;6.776;2023-08-24T03:06:45;18.40;99.90
4826;DHT22;2427;50.934;6.776;2023-08-24T03:09:10;18.50;99.90
4826;DHT22;2427;50.934;6.776;2023-08-24T03:11:36;18.50;99.90
4826;DHT22;2427;50.934;6.776;2023-08-24T03:14:01;18.50;99.90
4826;DHT22;2427;50.934;6.776;2023-08-24T03:16:27;18.50;99.90
4826;DHT22;2427;50.934;6.776;2023-08-24T03:18:53;18.40;99.90
4826;DHT22;2427;50.934;6.776;2023-08-24T03:21:18;18.40;99.90
4826;DHT22;2427;50.934;6.776;2023-08-24T03:23:44;18.50;99.90
4826;DHT22;2427;50.934;6.776;2023-08-24T03:29:31;18.50;99.90
4826;DHT22;2427;50.934;6.776;2023-08-24T03:31:57;18.50;99.90
4826;DHT22;2427;50.934;6.776;2023-08-24T03:34:22;18.60;99.90
4826;DHT22;2427;50.934;6.776;2023-08-24T03:36:48;18.60;99.90
4826;DHT22;2427;50.934;6.776;2023-08-24T03:39:14;18.70;99.90
4826;DHT22;2427;50.934;6.776;2023-08-24T03:41:41;18.70;99.90
4826;DHT22;2427;50.934;6.776;2023-08-24T03:44:06;18.70;99.90
4826;DHT22;2427;50.934;6.776;2023-08-24T03:46:32;18.70;99.90
4826;DHT22;2427;50.934;6.776;2023-08-24T03:48:57;18.70;99.90
4826;DHT22;2427;50.934;6.776;2023-08-24T03:51:23;18.70;99.90
4826;DHT22;2427;50.934;6.776;2023-08-24T03:53:48;18.70;99.90
4826;DHT22;2427;50.934;6.776;2023-08-24T03:56:14;18.70;99.90
4826;DHT22;2427;50.934;6.776;2023-08-24T03:58:40;18.70;99.90
4826;DHT22;2427;50.934;6.776;2023-08-24T04:01:10;18.80;99.90
4826;DHT22;2427;50.934;6.776;2023-08-24T04:03:36;18.80;99.90
4826;DHT22;2427;50.934;6.776;2023-08-24T04:06:02;18.80;99.90
4826;DHT22;2427;50.934;6.776;2023-08-24T04:08:27;18.80;99.90
4826;DHT22;2427;50.934;6.776;2023-08-24T04:10:53;18.80;99.90
4826;DHT22;2427;50.934;6.776;2023-08-24T04:13:19;18.90;99.90
4826;DHT22;2427;50.934;6.776;2023-08-24T04:15:44;18.90;99.90
4826;DHT22;2427;50.934;6.776;2023-08-24T04:18:10;18.90;99.90
4826;DHT22;2427;50.934;6.776;2023-08-24T04:20:36;18.90;99.90
4826;DHT22;2427;50.934;6.776;2023-08-24T04:23:02;19.00;99.90
4826;DHT22;2427;50.934;6.776;2023-08-24T04:25:28;19.00;99.90
4826;DHT22;2427;50.934;6.776;2023-08-24T04:27:54;19.00;99.90
4826;DHT22;2427;50.934;6.776;2023-08-24T04:30:20;19.00;99.90
4826;DHT22;2427;50.934;6.776;2023-08-24T04:32:47;19.00;99.90
4826;DHT22;2427;50.934;6.776;2023-08-24T04:35:12;19.00;99.90
4826;DHT22;2427;50.934;6.776;2023-08-24T04:37:38;19.00;99.90
4826;DHT22;2427;50.934;6.776;2023-08-24T04:40:05;19.00;1.00
4826;DHT22;2427;50.934;6.776;2023-08-24T04:42:32;19.00;1.00
4826;DHT22;2427;50.934;6.776;2023-08-24T04:44:58;18.90;1.00
4826;DHT22;2427;50.934;6.776;2023-08-24T04:47:24;18.90;1.00
4826;DHT22;2427;50.934;6.776;2023-08-24T04:49:49;18.80;99.90
4826;DHT22;2427;50.934;6.776;2023-08-24T04:52:15;18.70;99.90
4826;DHT22;2427;50.934;6.776;2023-08-24T04:54:40;18.60;1.00
4826;DHT22;2427;50.934;6.776;2023-08-24T04:57:06;18.50;1.00
4826;DHT22;2427;50.934;6.776;2023-08-24T04:59:32;18.40;1.00
4826;DHT22;2427;50.934;6.776;2023-08-24T05:01:57;18.40;99.90
4826;DHT22;2427;50.934;6.776;2023-08-24T05:04:24;18.30;99.90
4826;DHT22;2427;50.934;6.776;2023-08-24T05:06:49;18.20;99.90
4826;DHT22;2427;50.934;6.776;2023-08-24T05:09:15;18.20;1.00
4826;DHT22;2427;50.934;6.776;2023-08-24T05:11:40;18.20;1.00
4826;DHT22;2427;50.934;6.776;2023-08-24T05:14:06;18.20;1.00
4826;DHT22;2427;50.934;6.776;2023-08-24T05:16:32;18.10;1.00
4826;DHT22;2427;50.934;6.776;2023-08-24T05:18:57;18.00;1.00
4826;DHT22;2427;50.934;6.776;2023-08-24T05:21:23;18.10;99.90
4826;DHT22;2427;50.934;6.776;2023-08-24T05:23:48;18.10;1.00
4826;DHT22;2427;50.934;6.776;2023-08-24T05:26:14;18.20;1.00
4826;DHT22;2427;50.934;6.776;2023-08-24T05:28:41;18.10;1.00
4826;DHT22;2427;50.934;6.776;2023-08-24T05:31:06;18.10;87.70
4826;DHT22;2427;50.934;6.776;2023-08-24T05:33:32;18.20;99.90
4826;DHT22;2427;50.934;6.776;2023-08-24T05:35:58;18.20;99.90
4826;DHT22;2427;50.934;6.776;2023-08-24T05:38:24;18.10;99.90
4826;DHT22;2427;50.934;6.776;2023-08-24T05:40:49;18.10;1.00
4826;DHT22;2427;50.934;6.776;2023-08-24T05:43:15;18.10;1.00
4826;DHT22;2427;50.934;6.776;2023-08-24T05:45:41;18.20;1.00
4826;DHT22;2427;50.934;6.776;2023-08-24T05:48:09;18.20;1.00
4826;DHT22;2427;50.934;6.776;2023-08-24T05:50:34;18.20;1.00
4826;DHT22;2427;50.934;6.776;2023-08-24T05:53:00;18.20;1.00
4826;DHT22;2427;50.934;6.776;2023-08-24T05:55:25;18.20;1.00
4826;DHT22;2427;50.934;6.776;2023-08-24T05:57:51;18.20;1.00
4826;DHT22;2427;50.934;6.776;2023-08-24T06:00:17;18.20;1.00
4826;DHT22;2427;50.934;6.776;2023-08-24T06:02:43;18.30;1.00
4826;DHT22;2427;50.934;6.776;2023-08-24T06:05:08;18.30;1.00
4826;DHT22;2427;50.934;6.776;2023-08-24T06:07:35;18.30;1.00
4826;DHT22;2427;50.934;6.776;2023-08-24T06:10:00;18.30;1.00
4826;DHT22;2427;50.934;6.776;2023-08-24T06:12:26;18.30;1.00
4826;DHT22;2427;50.934;6.776;2023-08-24T06:14:51;18.40;1.00
4826;DHT22;2427;50.934;6.776;2023-08-24T06:17:17;18.40;1.00
4826;DHT22;2427;50.934;6.776;2023-08-24T06:19:43;18.40;1.00
4826;DHT22;2427;50.934;6.776;2023-08-24T06:22:09;18.50;1.00
4826;DHT22;2427;50.934;6.776;2023-08-24T06:24:35;18.60;99.90
4826;DHT22;2427;50.934;6.776;2023-08-24T06:27:01;18.60;99.90
4826;DHT22;2427;50.934;6.776;2023-08-24T06:29:28;18.70;1.00
4826;DHT22;2427;50.934;6.776;2023-08-24T06:31:54;18.80;1.00
4826;DHT22;2427;50.934;6.776;2023-08-24T06:34:20;18.90;1.00
4826;DHT22;2427;50.934;6.776;2023-08-24T06:36:46;19.10;99.90
4826;DHT22;2427;50.934;6.776;2023-08-24T06:39:12;19.20;99.90
4826;DHT22;2427;50.934;6.776;2023-08-24T06:41:38;19.30;45.70
4826;DHT22;2427;50.934;6.776;2023-08-24T06:44:04;19.30;1.00
4826;DHT22;2427;50.934;6.776;2023-08-24T06:46:29;19.40;1.00
4826;DHT22;2427;50.934;6.776;2023-08-24T06:48:55;19.50;1.00
4826;DHT22;2427;50.934;6.776;2023-08-24T06:51:20;19.50;1.00
4826;DHT22;2427;50.934;6.776;2023-08-24T06:53:46;19.60;1.00
4826;DHT22;2427;50.934;6.776;2023-08-24T06:56:14;19.60;1.00
4826;DHT22;2427;50.934;6.776;2023-08-24T06:58:47;19.70;99.90
4826;DHT22;2427;50.934;6.776;2023-08-24T07:01:13;19.80;99.90
4826;DHT22;2427;50.934;6.776;2023-08-24T07:03:38;19.90;99.90
4826;DHT22;2427;50.934;6.776;2023-08-24T07:06:07;20.00;99.90
4826;DHT22;2427;50.934;6.776;2023-08-24T07:08:33;20.10;99.90
4826;DHT22;2427;50.934;6.776;2023-08-24T07:10:59;20.20;1.00
4826;DHT22;2427;50.934;6.776;2023-08-24T07:13:24;20.30;1.00
4826;DHT22;2427;50.934;6.776;2023-08-24T07:15:51;20.40;1.00
4826;DHT22;2427;50.934;6.776;2023-08-24T07:18:17;20.50;1.00
4826;DHT22;2427;50.934;6.776;2023-08-24T07:20:42;20.60;1.00
4826;DHT22;2427;50.934;6.776;2023-08-24T07:23:08;20.70;1.00
4826;DHT22;2427;50.934;6.776;2023-08-24T07:25:34;20.70;99.90
4826;DHT22;2427;50.934;6.776;2023-08-24T07:28:00;20.80;99.90
4826;DHT22;2427;50.934;6.776;2023-08-24T07:30:28;20.90;99.90
4826;DHT22;2427;50.934;6.776;2023-08-24T07:32:54;21.00;99.90
4826;DHT22;2427;50.934;6.776;2023-08-24T07:35:20;21.10;99.90
4826;DHT22;2427;50.934;6.776;2023-08-24T07:37:49;21.20;79.80
4826;DHT22;2427;50.934;6.776;2023-08-24T07:40:15;21.30;21.20
4826;DHT22;2427;50.934;6.776;2023-08-24T07:42:52;21.40;1.00
4826;DHT22;2427;50.934;6.776;2023-08-24T07:45:20;21.50;1.00
4826;DHT22;2427;50.934;6.776;2023-08-24T07:47:45;21.60;1.00
4826;DHT22;2427;50.934;6.776;2023-08-24T07:50:11;21.70;1.00
4826;DHT22;2427;50.934;6.776;2023-08-24T07:52:40;21.80;1.00
4826;DHT22;2427;50.934;6.776;2023-08-24T07:55:07;21.90;1.00
4826;DHT22;2427;50.934;6.776;2023-08-24T07:57:36;22.00;1.00
4826;DHT22;2427;50.934;6.776;2023-08-24T08:00:03;22.20;1.00
4826;DHT22;2427;50.934;6.776;2023-08-24T08:02:29;22.30;1.00
4826;DHT22;2427;50.934;6.776;2023-08-24T08:05:01;22.40;1.00
4826;DHT22;2427;50.934;6.776;2023-08-24T08:07:26;22.50;1.00
4826;DHT22;2427;50.934;6.776;2023-08-24T08:09:52;22.60;1.00
4826;DHT22;2427;50.934;6.776;2023-08-24T08:12:18;22.80;1.00
4826;DHT22;2427;50.934;6.776;2023-08-24T08:14:43;22.90;1.00
4826;DHT22;2427;50.934;6.776;2023-08-24T08:17:09;23.00;1.00
4826;DHT22;2427;50.934;6.776;2023-08-24T08:19:35;23.10;1.00
4826;DHT22;2427;50.934;6.776;2023-08-24T08:22:04;23.20;1.00
4826;DHT22;2427;50.934;6.776;2023-08-24T08:24:29;23.30;1.00
4826;DHT22;2427;50.934;6.776;2023-08-24T08:26:55;23.30;1.00
4826;DHT22;2427;50.934;6.776;2023-08-24T08:29:20;23.40;1.00
4826;DHT22;2427;50.934;6.776;2023-08-24T08:31:46;23.50;1.00
4826;DHT22;2427;50.934;6.776;2023-08-24T08:34:12;23.60;1.00
4826;DHT22;2427;50.934;6.776;2023-08-24T08:36:37;23.70;99.90
4826;DHT22;2427;50.934;6.776;2023-08-24T08:39:03;23.90;99.90
4826;DHT22;2427;50.934;6.776;2023-08-24T08:41:33;23.90;99.90
4826;DHT22;2427;50.934;6.776;2023-08-24T08:44:04;24.00;99.90
4826;DHT22;2427;50.934;6.776;2023-08-24T08:46:29;24.10;99.90
4826;DHT22;2427;50.934;6.776;2023-08-24T08:48:56;24.20;99.90
4826;DHT22;2427;50.934;6.776;2023-08-24T08:51:22;24.40;99.90
4826;DHT22;2427;50.934;6.776;2023-08-24T08:53:48;24.50;99.90
4826;DHT22;2427;50.934;6.776;2023-08-24T08:56:14;24.70;99.90
4826;DHT22;2427;50.934;6.776;2023-08-24T08:58:41;24.80;99.90
4826;DHT22;2427;50.934;6.776;2023-08-24T09:01:09;24.90;99.90
4826;DHT22;2427;50.934;6.776;2023-08-24T09:03:34;25.00;99.90
4826;DHT22;2427;50.934;6.776;2023-08-24T09:06:00;25.20;99.90
4826;DHT22;2427;50.934;6.776;2023-08-24T09:08:26;25.30;99.90
4826;DHT22;2427;50.934;6.776;2023-08-24T09:10:53;25.50;99.90
4826;DHT22;2427;50.934;6.776;2023-08-24T09:13:20;25.70;99.90
4826;DHT22;2427;50.934;6.776;2023-08-24T09:15:46;25.90;99.90
4826;DHT22;2427;50.934;6.776;2023-08-24T09:18:12;26.00;99.90
4826;DHT22;2427;50.934;6.776;2023-08-24T09:20:37;26.00;99.90
4826;DHT22;2427;50.934;6.776;2023-08-24T09:23:03;26.20;99.90
4826;DHT22;2427;50.934;6.776;2023-08-24T09:25:29;26.30;99.90
4826;DHT22;2427;50.934;6.776;2023-08-24T09:30:23;26.60;99.90
4826;DHT22;2427;50.934;6.776;2023-08-24T09:32:48;26.90;99.90
4826;DHT22;2427;50.934;6.776;2023-08-24T09:35:14;27.00;99.90
4826;DHT22;2427;50.934;6.776;2023-08-24T09:37:41;27.10;99.90
4826;DHT22;2427;50.934;6.776;2023-08-24T09:40:11;27.20;99.90
4826;DHT22;2427;50.934;6.776;2023-08-24T09:42:41;27.20;99.90
4826;DHT22;2427;50.934;6.776;2023-08-24T09:45:14;27.30;99.90
4826;DHT22;2427;50.934;6.776;2023-08-24T09:47:45;27.40;99.90
4826;DHT22;2427;50.934;6.776;2023-08-24T09:50:11;27.50;99.90
4826;DHT22;2427;50.934;6.776;2023-08-24T10:16:24;28.20;99.90
4826;DHT22;2427;50.934;6.776;2023-08-24T10:18:52;28.30;99.90
4826;DHT22;2427;50.934;6.776;2023-08-24T10:21:23;28.30;99.90
4826;DHT22;2427;50.934;6.776;2023-08-24T10:27:14;28.30;99.90
4826;DHT22;2427;50.934;6.776;2023-08-24T10:29:40;28.40;99.90
4826;DHT22;2427;50.934;6.776;2023-08-24T10:48:59;28.60;99.90
4826;DHT22;2427;50.934;6.776;2023-08-24T11:08:19;28.70;99.90
4826;DHT22;2427;50.934;6.776;2023-08-24T11:11:03;28.60;99.90
4826;DHT22;2427;50.934;6.776;2023-08-24T11:13:28;28.50;99.90
4826;DHT22;2427;50.934;6.776;2023-08-24T11:15:54;28.50;99.90
4826;DHT22;2427;50.934;6.776;2023-08-24T11:18:23;28.40;99.90
4826;DHT22;2427;50.934;6.776;2023-08-24T11:27:33;28.20;99.90
4826;DHT22;2427;50.934;6.776;2023-08-24T11:53:29;27.20;99.90
4826;DHT22;2427;50.934;6.776;2023-08-24T11:59:19;27.20;99.90
4826;DHT22;2427;50.934;6.776;2023-08-24T12:01:45;27.10;99.90
4826;DHT22;2427;50.934;6.776;2023-08-24T12:04:12;27.10;99.90
4826;DHT22;2427;50.934;6.776;2023-08-24T12:06:37;27.00;99.90
4826;DHT22;2427;50.934;6.776;2023-08-24T12:13:02;26.90;99.90
4826;DHT22;2427;50.934;6.776;2023-08-24T12:15:28;26.80;99.90
4826;DHT22;2427;50.934;6.776;2023-08-24T12:17:53;26.50;99.90
4826;DHT22;2427;50.934;6.776;2023-08-24T12:20:22;26.30;99.90
4826;DHT22;2427;50.934;6.776;2023-08-24T12:22:55;26.10;99.90
4826;DHT22;2427;50.934;6.776;2023-08-24T12:25:24;25.80;99.90
4826;DHT22;2427;50.934;6.776;2023-08-24T12:27:51;25.50;99.90
4826;DHT22;2427;50.934;6.776;2023-08-24T12:30:18;25.10;1.00
4826;DHT22;2427;50.934;6.776;2023-08-24T12:32:46;24.70;1.00
4826;DHT22;2427;50.934;6.776;2023-08-24T12:35:15;24.30;1.00
4826;DHT22;2427;50.934;6.776;2023-08-24T12:37:40;24.10;34.60
4826;DHT22;2427;50.934;6.776;2023-08-24T12:40:07;23.80;99.90
4826;DHT22;2427;50.934;6.776;2023-08-24T12:42:33;23.70;99.90
4826;DHT22;2427;50.934;6.776;2023-08-24T12:44:59;23.50;1.00
4826;DHT22;2427;50.934;6.776;2023-08-24T12:47:25;23.40;1.00
4826;DHT22;2427;50.934;6.776;2023-08-24T12:49:51;23.40;99.90
4826;DHT22;2427;50.934;6.776;2023-08-24T12:52:18;23.40;1.00
4826;DHT22;2427;50.934;6.776;2023-08-24T12:54:43;23.50;1.00
4826;DHT22;2427;50.934;6.776;2023-08-24T12:57:09;23.60;1.00
4826;DHT22;2427;50.934;6.776;2023-08-24T12:59:34;23.70;1.00
4826;DHT22;2427;50.934;6.776;2023-08-24T13:02:00;23.80;99.90
4826;DHT22;2427;50.934;6.776;2023-08-24T13:04:26;23.80;99.90
4826;DHT22;2427;50.934;6.776;2023-08-24T13:06:53;23.80;99.90
4826;DHT22;2427;50.934;6.776;2023-08-24T13:09:19;23.80;99.90
4826;DHT22;2427;50.934;6.776;2023-08-24T13:11:44;23.80;99.90
4826;DHT22;2427;50.934;6.776;2023-08-24T13:14:10;23.80;99.90
4826;DHT22;2427;50.934;6.776;2023-08-24T13:16:36;23.70;99.90
4826;DHT22;2427;50.934;6.776;2023-08-24T13:19:01;23.70;97.60
4826;DHT22;2427;50.934;6.776;2023-08-24T13:21:27;23.70;38.20
4826;DHT22;2427;50.934;6.776;2023-08-24T13:23:53;23.70;1.00
4826;DHT22;2427;50.934;6.776;2023-08-24T13:26:20;23.70;1.00
4826;DHT22;2427;50.934;6.776;2023-08-24T13:28:49;23.70;1.00
4826;DHT22;2427;50.934;6.776;2023-08-24T13:31:15;23.70;1.00
4826;DHT22;2427;50.934;6.776;2023-08-24T13:33:40;23.70;1.00
4826;DHT22;2427;50.934;6.776;2023-08-24T13:36:06;23.60;1.00
4826;DHT22;2427;50.934;6.776;2023-08-24T13:38:32;23.60;1.00
4826;DHT22;2427;50.934;6.776;2023-08-24T13:40:57;23.60;1.00
4826;DHT22;2427;50.934;6.776;2023-08-24T13:43:23;23.60;1.00
4826;DHT22;2427;50.934;6.776;2023-08-24T13:45:48;23.60;1.00
4826;DHT22;2427;50.934;6.776;2023-08-24T13:48:14;23.70;1.00
4826;DHT22;2427;50.934;6.776;2023-08-24T13:50:52;23.70;1.00
4826;DHT22;2427;50.934;6.776;2023-08-24T13:53:18;23.70;1.00
4826;DHT22;2427;50.934;6.776;2023-08-24T13:55:44;23.60;1.00
4826;DHT22;2427;50.934;6.776;2023-08-24T13:58:10;23.60;1.00
4826;DHT22;2427;50.934;6.776;2023-08-24T14:00:36;23.50;1.00
4826;DHT22;2427;50.934;6.776;2023-08-24T14:03:02;23.50;1.00
4826;DHT22;2427;50.934;6.776;2023-08-24T14:05:28;23.50;1.00
4826;DHT22;2427;50.934;6.776;2023-08-24T14:07:54;23.40;1.00
4826;DHT22;2427;50.934;6.776;2023-08-24T14:10:19;23.30;1.00
4826;DHT22;2427;50.934;6.776;2023-08-24T14:12:45;23.20;66.60
4826;DHT22;2427;50.934;6.776;2023-08-24T14:15:11;23.10;99.90
4826;DHT22;2427;50.934;6.776;2023-08-24T14:17:37;22.90;99.90
4826;DHT22;2427;50.934;6.776;2023-08-24T14:20:02;22.70;99.90
4826;DHT22;2427;50.934;6.776;2023-08-24T14:22:29;22.50;99.90
4826;DHT22;2427;50.934;6.776;2023-08-24T14:24:55;22.40;99.90
4826;DHT22;2427;50.934;6.776;2023-08-24T14:27:21;22.50;99.90
4826;DHT22;2427;50.934;6.776;2023-08-24T14:29:46;22.30;99.90
4826;DHT22;2427;50.934;6.776;2023-08-24T14:32:12;22.20;1.00
4826;DHT22;2427;50.934;6.776;2023-08-24T14:34:37;22.10;1.00
4826;DHT22;2427;50.934;6.776;2023-08-24T14:37:03;22.00;1.00
4826;DHT22;2427;50.934;6.776;2023-08-24T14:39:29;21.90;1.00
4826;DHT22;2427;50.934;6.776;2023-08-24T14:41:54;21.80;1.00
4826;DHT22;2427;50.934;6.776;2023-08-24T14:44:20;21.60;85.80
4826;DHT22;2427;50.934;6.776;2023-08-24T14:46:46;21.60;99.90
4826;DHT22;2427;50.934;6.776;2023-08-24T14:49:12;21.50;1.00
4826;DHT22;2427;50.934;6.776;2023-08-24T14:51:39;21.30;1.00
4826;DHT22;2427;50.934;6.776;2023-08-24T14:54:04;21.20;1.00
4826;DHT22;2427;50.934;6.776;2023-08-24T14:56:32;21.00;9.10
4826;DHT22;2427;50.934;6.776;2023-08-24T14:58:58;20.80;46.50
4826;DHT22;2427;50.934;6.776;2023-08-24T15:01:23;20.60;99.90
4826;DHT22;2427;50.934;6.776;2023-08-24T15:03:49;20.50;1.00
4826;DHT22;2427;50.934;6.776;2023-08-24T15:06:15;20.40;1.00
4826;DHT22;2427;50.934;6.776;2023-08-24T15:08:41;20.30;1.00
4826;DHT22;2427;50.934;6.776;2023-08-24T15:11:06;20.10;1.00
4826;DHT22;2427;50.934;6.776;2023-08-24T15:13:32;20.10;99.90
4826;DHT22;2427;50.934;6.776;2023-08-24T15:15:58;20.00;4.40
4826;DHT22;2427;50.934;6.776;2023-08-24T15:18:25;19.90;1.00
4826;DHT22;2427;50.934;6.776;2023-08-24T15:20:51;19.90;1.00
4826;DHT22;2427;50.934;6.776;2023-08-24T15:23:27;19.90;99.90
4826;DHT22;2427;50.934;6.776;2023-08-24T15:25:55;19.90;1.00
4826;DHT22;2427;50.934;6.776;2023-08-24T15:28:21;19.90;1.00
4826;DHT22;2427;50.934;6.776;2023-08-24T15:30:47;19.80;1.00
4826;DHT22;2427;50.934;6.776;2023-08-24T15:33:12;19.90;1.00
4826;DHT22;2427;50.934;6.776;2023-08-24T15:35:41;19.90;1.00
4826;DHT22;2427;50.934;6.776;2023-08-24T15:38:11;19.90;1.00
4826;DHT22;2427;50.934;6.776;2023-08-24T15:40:37;19.80;1.00
4826;DHT22;2427;50.934;6.776;2023-08-24T15:43:04;19.80;1.00
4826;DHT22;2427;50.934;6.776;2023-08-24T15:45:31;19.80;1.00
4826;DHT22;2427;50.934;6.776;2023-08-24T15:47:57;19.80;1.00
4826;DHT22;2427;50.934;6.776;2023-08-24T15:50:23;19.80;1.00
4826;DHT22;2427;50.934;6.776;2023-08-24T15:52:49;19.80;1.00
4826;DHT22;2427;50.934;6.776;2023-08-24T15:55:15;19.80;1.00
4826;DHT22;2427;50.934;6.776;2023-08-24T15:57:41;19.80;1.00
4826;DHT22;2427;50.934;6.776;2023-08-24T16:00:07;19.80;1.00
4826;DHT22;2427;50.934;6.776;2023-08-24T16:02:40;19.70;1.00
4826;DHT22;2427;50.934;6.776;2023-08-24T16:05:07;19.70;1.00
4826;DHT22;2427;50.934;6.776;2023-08-24T16:07:33;19.70;1.00
4826;DHT22;2427;50.934;6.776;2023-08-24T16:09:59;19.70;1.00
4826;DHT22;2427;50.934;6.776;2023-08-24T16:12:24;19.70;1.00
4826;DHT22;2427;50.934;6.776;2023-08-24T16:14:50;19.70;1.00
4826;DHT22;2427;50.934;6.776;2023-08-24T16:17:15;19.70;1.00
4826;DHT22;2427;50.934;6.776;2023-08-24T16:19:44;19.70;1.00
4826;DHT22;2427;50.934;6.776;2023-08-24T16:22:09;19.70;12.30
4826;DHT22;2427;50.934;6.776;2023-08-24T16:24:35;19.80;1.00
4826;DHT22;2427;50.934;6.776;2023-08-24T16:27:00;19.80;1.00
4826;DHT22;2427;50.934;6.776;2023-08-24T16:29:26;19.80;1.00
4826;DHT22;2427;50.934;6.776;2023-08-24T16:31:52;19.80;1.00
4826;DHT22;2427;50.934;6.776;2023-08-24T16:34:18;19.80;1.00
4826;DHT22;2427;50.934;6.776;2023-08-24T16:36:44;19.80;1.00
4826;DHT22;2427;50.934;6.776;2023-08-24T16:39:09;19.80;1.00
4826;DHT22;2427;50.934;6.776;2023-08-24T16:41:35;19.90;1.00
4826;DHT22;2427;50.934;6.776;2023-08-24T16:44:01;19.90;1.00
4826;DHT22;2427;50.934;6.776;2023-08-24T16:46:27;20.00;1.00
4826;DHT22;2427;50.934;6.776;2023-08-24T16:48:53;20.00;1.00
4826;DHT22;2427;50.934;6.776;2023-08-24T16:51:18;20.00;1.00
4826;DHT22;2427;50.934;6.776;2023-08-24T16:53:44;20.10;1.00
4826;DHT22;2427;50.934;6.776;2023-08-24T16:56:09;20.10;1.00
4826;DHT22;2427;50.934;6.776;2023-08-24T16:58:35;20.20;1.00
4826;DHT22;2427;50.934;6.776;2023-08-24T17:01:06;20.30;1.00
4826;DHT22;2427;50.934;6.776;2023-08-24T17:03:31;20.40;1.00
4826;DHT22;2427;50.934;6.776;2023-08-24T17:05:57;20.50;1.00
4826;DHT22;2427;50.934;6.776;2023-08-24T17:08:22;20.50;1.00
4826;DHT22;2427;50.934;6.776;2023-08-24T17:10:48;20.60;1.00
4826;DHT22;2427;50.934;6.776;2023-08-24T17:13:13;20.60;1.00
4826;DHT22;2427;50.934;6.776;2023-08-24T17:15:39;20.60;1.00
4826;DHT22;2427;50.934;6.776;2023-08-24T17:18:05;20.60;1.00
4826;DHT22;2427;50.934;6.776;2023-08-24T17:20:34;20.70;1.00
4826;DHT22;2427;50.934;6.776;2023-08-24T17:23:01;20.70;1.00
4826;DHT22;2427;50.934;6.776;2023-08-24T17:25:26;20.70;1.00
4826;DHT22;2427;50.934;6.776;2023-08-24T17:27:52;20.70;1.00
4826;DHT22;2427;50.934;6.776;2023-08-24T17:30:18;20.70;1.00
4826;DHT22;2427;50.934;6.776;2023-08-24T17:32:43;20.70;1.00
4826;DHT22;2427;50.934;6.776;2023-08-24T17:35:10;20.70;1.00
4826;DHT22;2427;50.934;6.776;2023-08-24T17:37:35;20.70;1.00
4826;DHT22;2427;50.934;6.776;2023-08-24T17:40:03;20.70;1.00
4826;DHT22;2427;50.934;6.776;2023-08-24T17:42:31;20.70;1.00
4826;DHT22;2427;50.934;6.776;2023-08-24T17:44:56;20.70;1.00
4826;DHT22;2427;50.934;6.776;2023-08-24T17:47:22;20.70;1.00
4826;DHT22;2427;50.934;6.776;2023-08-24T17:49:47;20.70;1.00
4826;DHT22;2427;50.934;6.776;2023-08-24T17:52:13;20.60;1.00
4826;DHT22;2427;50.934;6.776;2023-08-24T17:54:39;20.60;1.00
4826;DHT22;2427;50.934;6.776;2023-08-24T17:57:04;20.60;1.00
4826;DHT22;2427;50.934;6.776;2023-08-24T17:59:30;20.60;1.00
4826;DHT22;2427;50.934;6.776;2023-08-24T18:01:56;20.60;1.00
4826;DHT22;2427;50.934;6.776;2023-08-24T18:04:21;20.60;1.00
4826;DHT22;2427;50.934;6.776;2023-08-24T18:06:47;20.60;1.00